TimeCDT,TemperatureF,Dew PointF,Humidity,Sea Level PressureIn,VisibilityMPH,Wind Direction,Wind SpeedMPH,Gust SpeedMPH,PrecipitationIn,Events,Conditions,WindDirDegrees,DateUTC
12:15 AM,75.2,62.6,65,29.87,10.0,West,8.1,-,N/A,,Scattered Clouds,280,2013-07-09 05:15:00
12:35 AM,73.4,64.4,73,29.86,10.0,NNW,3.5,-,N/A,,Clear,330,2013-07-09 05:35:00
12:55 AM,73.4,62.6,69,29.87,10.0,North,3.5,-,N/A,,Partly Cloudy,350,2013-07-09 05:55:00
1:15 AM,66.2,57.2,73,29.91,10.0,NW,28.8,43.7,N/A,Thunderstorm,Mostly Cloudy,320,2013-07-09 06:15:00
1:35 AM,64.4,57.2,77,29.90,5.0,NW,15.0,26.5,0.14,Thunderstorm,Mostly Cloudy,320,2013-07-09 06:35:00
1:55 AM,64.4,57.2,77,29.89,9.0,NW,9.2,-,0.19,Thunderstorm,Overcast,320,2013-07-09 06:55:00
2:15 AM,64.4,57.2,77,29.91,5.0,SE,4.6,-,0.04,,Overcast,130,2013-07-09 07:15:00
2:35 AM,64.4,59.0,83,29.90,10.0,ENE,6.9,-,0.07,,Overcast,60,2013-07-09 07:35:00
2:55 AM,64.4,59.0,83,29.86,9.0,NE,10.4,-,0.11,,Mostly Cloudy,50,2013-07-09 07:55:00
3:15 AM,64.4,57.2,77,29.84,10.0,ENE,9.2,-,N/A,,Mostly Cloudy,60,2013-07-09 08:15:00
3:35 AM,64.4,57.2,77,29.82,10.0,East,8.1,-,N/A,,Overcast,80,2013-07-09 08:35:00
3:55 AM,64.4,59.0,83,29.79,10.0,East,11.5,-,N/A,,Mostly Cloudy,90,2013-07-09 08:55:00
4:15 AM,64.4,60.8,88,29.79,10.0,East,9.2,-,N/A,,Mostly Cloudy,80,2013-07-09 09:15:00
4:35 AM,66.2,60.8,83,29.81,10.0,North,9.2,-,N/A,,Overcast,360,2013-07-09 09:35:00
4:55 AM,64.4,60.8,88,29.82,10.0,North,10.4,-,N/A,,Overcast,360,2013-07-09 09:55:00
5:15 AM,64.4,59.0,83,29.85,10.0,NNW,9.2,-,N/A,,Overcast,330,2013-07-09 10:15:00
5:35 AM,64.4,57.2,77,29.85,10.0,North,12.7,-,N/A,,Overcast,10,2013-07-09 10:35:00
5:55 AM,64.4,57.2,77,29.87,10.0,NNE,11.5,-,N/A,,Overcast,30,2013-07-09 10:55:00
6:15 AM,62.6,57.2,82,29.87,10.0,NE,12.7,-,N/A,,Overcast,50,2013-07-09 11:15:00
6:35 AM,62.6,57.2,82,29.88,10.0,NE,10.4,-,N/A,,Overcast,50,2013-07-09 11:35:00
6:55 AM,62.6,57.2,82,29.88,10.0,NE,9.2,-,N/A,,Overcast,50,2013-07-09 11:55:00
7:15 AM,62.6,57.2,82,29.89,10.0,NNE,11.5,-,N/A,,Overcast,20,2013-07-09 12:15:00
7:35 AM,60.8,55.4,82,29.90,10.0,NNE,13.8,18.4,N/A,,Overcast,30,2013-07-09 12:35:00
7:55 AM,60.8,53.6,77,29.90,10.0,ENE,9.2,-,N/A,,Overcast,60,2013-07-09 12:55:00
8:15 AM,60.8,53.6,77,29.91,10.0,NE,10.4,-,N/A,,Overcast,50,2013-07-09 13:15:00
8:35 AM,60.8,53.6,77,29.93,10.0,NNE,12.7,-,N/A,,Overcast,30,2013-07-09 13:35:00
8:55 AM,60.8,53.6,77,29.93,10.0,NNE,10.4,-,N/A,,Overcast,30,2013-07-09 13:55:00
9:15 AM,60.8,53.6,77,29.93,10.0,NNE,9.2,-,N/A,,Overcast,20,2013-07-09 14:15:00
9:35 AM,62.6,55.4,77,29.92,10.0,North,11.5,-,N/A,,Overcast,10,2013-07-09 14:35:00
9:55 AM,62.6,55.4,77,29.92,10.0,North,10.4,-,N/A,,Overcast,10,2013-07-09 14:55:00
10:15 AM,62.6,55.4,77,29.93,10.0,North,10.4,-,N/A,,Overcast,10,2013-07-09 15:15:00
10:35 AM,64.4,55.4,73,29.93,10.0,NE,9.2,-,N/A,,Mostly Cloudy,40,2013-07-09 15:35:00
10:55 AM,66.2,57.2,73,29.94,9.0,North,12.7,-,N/A,,Mostly Cloudy,360,2013-07-09 15:55:00
11:15 AM,64.4,55.4,73,29.95,10.0,North,12.7,16.1,N/A,,Overcast,360,2013-07-09 16:15:00
11:35 AM,64.4,55.4,73,29.97,10.0,North,17.3,-,N/A,,Overcast,350,2013-07-09 16:35:00
11:55 AM,64.4,53.6,68,29.97,10.0,North,13.8,-,N/A,,Overcast,10,2013-07-09 16:55:00
12:15 PM,64.4,53.6,68,29.98,10.0,North,17.3,-,N/A,,Overcast,350,2013-07-09 17:15:00
12:35 PM,64.4,53.6,68,29.99,10.0,North,16.1,-,N/A,,Overcast,360,2013-07-09 17:35:00
12:55 PM,64.4,53.6,68,29.99,10.0,North,17.3,-,N/A,,Overcast,360,2013-07-09 17:55:00
1:15 PM,66.2,53.6,64,29.98,10.0,North,16.1,-,N/A,,Overcast,360,2013-07-09 18:15:00
1:35 PM,66.2,53.6,64,29.99,10.0,North,17.3,-,N/A,,Overcast,360,2013-07-09 18:35:00
1:55 PM,64.4,53.6,68,29.98,10.0,North,12.7,-,N/A,,Mostly Cloudy,10,2013-07-09 18:55:00
2:15 PM,66.2,53.6,64,29.99,10.0,North,15.0,-,N/A,,Mostly Cloudy,10,2013-07-09 19:15:00
2:35 PM,64.4,51.8,64,29.99,10.0,North,13.8,-,N/A,,Overcast,10,2013-07-09 19:35:00
2:55 PM,64.4,51.8,64,30.00,10.0,North,12.7,-,N/A,,Overcast,350,2013-07-09 19:55:00
3:15 PM,64.4,53.6,68,30.01,10.0,North,10.4,-,N/A,,Overcast,350,2013-07-09 20:15:00
3:35 PM,64.4,53.6,68,30.00,10.0,North,12.7,-,N/A,,Overcast,10,2013-07-09 20:35:00
3:55 PM,64.4,53.6,68,30.00,10.0,North,10.4,-,N/A,,Overcast,350,2013-07-09 20:55:00
4:15 PM,64.4,53.6,68,30.00,10.0,North,11.5,-,N/A,,Overcast,350,2013-07-09 21:15:00
4:35 PM,64.4,51.8,64,30.01,10.0,NNW,18.4,-,N/A,,Overcast,330,2013-07-09 21:35:00
4:55 PM,64.4,51.8,64,30.02,10.0,NW,11.5,-,N/A,,Overcast,320,2013-07-09 21:55:00
5:15 PM,64.4,51.8,64,30.02,10.0,NNW,10.4,-,N/A,,Overcast,330,2013-07-09 22:15:00
5:35 PM,64.4,51.8,64,30.02,10.0,NNW,9.2,-,N/A,,Mostly Cloudy,330,2013-07-09 22:35:00
5:55 PM,66.2,51.8,60,30.02,10.0,NNW,12.7,-,N/A,,Overcast,330,2013-07-09 22:55:00
6:15 PM,66.2,51.8,60,30.02,10.0,NNW,15.0,-,N/A,,Mostly Cloudy,330,2013-07-09 23:15:00
6:35 PM,66.2,51.8,60,30.02,10.0,NNW,16.1,-,N/A,,Mostly Cloudy,330,2013-07-09 23:35:00
6:55 PM,66.2,51.8,60,30.02,10.0,North,13.8,-,N/A,,Mostly Cloudy,350,2013-07-09 23:55:00
7:15 PM,66.2,53.6,64,30.03,10.0,NNW,15.0,-,N/A,,Mostly Cloudy,330,2013-07-10 00:15:00
7:35 PM,66.2,51.8,60,30.03,10.0,NNW,15.0,-,N/A,,Scattered Clouds,330,2013-07-10 00:35:00
7:55 PM,66.2,51.8,60,30.03,10.0,NNW,13.8,-,N/A,,Partly Cloudy,330,2013-07-10 00:55:00
8:15 PM,66.2,50.0,56,30.04,10.0,NNW,11.5,-,N/A,,Clear,330,2013-07-10 01:15:00
8:35 PM,64.4,48.2,56,30.04,10.0,NNW,11.5,-,N/A,,Clear,340,2013-07-10 01:35:00
8:55 PM,64.4,50.0,59,30.05,10.0,NNW,6.9,-,N/A,,Clear,330,2013-07-10 01:55:00
9:15 PM,62.6,50.0,63,30.05,10.0,NNW,6.9,-,N/A,,Clear,330,2013-07-10 02:15:00
9:35 PM,60.8,50.0,68,30.05,10.0,NW,6.9,-,N/A,,Clear,310,2013-07-10 02:35:00
9:55 PM,60.8,51.8,72,30.06,10.0,NW,8.1,-,N/A,,Clear,320,2013-07-10 02:55:00
10:15 PM,60.8,51.8,72,30.06,10.0,WNW,8.1,-,N/A,,Clear,290,2013-07-10 03:15:00
10:35 PM,59.0,51.8,77,30.07,10.0,WNW,8.1,-,N/A,,Clear,290,2013-07-10 03:35:00
10:55 PM,60.8,51.8,72,30.07,10.0,WNW,6.9,-,N/A,,Clear,290,2013-07-10 03:55:00
11:15 PM,60.8,51.8,72,30.07,10.0,WNW,8.1,-,N/A,,Clear,290,2013-07-10 04:15:00
11:35 PM,60.8,51.8,72,30.07,10.0,WNW,6.9,-,N/A,,Clear,290,2013-07-10 04:35:00
11:55 PM,60.8,51.8,72,30.08,10.0,WNW,6.9,-,N/A,,Clear,290,2013-07-10 04:55:00